sensor_id;sensor_type;location;lat;lon;timestamp;P1;durP1;ratioP1;P2;durP2;ratioP2
77625;SDS011;66794;43.764;10.436;2023-09-18T00:00:12;21.17;;;13.65;;
77625;SDS011;66794;43.764;10.436;2023-09-18T00:02:58;17.02;;;13.57;;
77625;SDS011;66794;43.764;10.436;2023-09-18T00:05:48;20.30;;;14.65;;
77625;SDS011;66794;43.764;10.436;2023-09-18T00:08:34;20.90;;;15.45;;
77625;SDS011;66794;43.764;10.436;2023-09-18T00:11:19;20.85;;;15.07;;
77625;SDS011;66794;43.764;10.436;2023-09-18T00:14:05;21.77;;;16.13;;
77625;SDS011;66794;43.764;10.436;2023-09-18T00:16:52;19.75;;;15.57;;
77625;SDS011;66794;43.764;10.436;2023-09-18T00:19:38;17.80;;;15.90;;
77625;SDS011;66794;43.764;10.436;2023-09-18T00:22:24;22.90;;;16.77;;
77625;SDS011;66794;43.764;10.436;2023-09-18T00:25:10;21.27;;;16.63;;
77625;SDS011;66794;43.764;10.436;2023-09-18T00:27:56;23.90;;;16.73;;
77625;SDS011;66794;43.764;10.436;2023-09-18T00:30:42;24.55;;;16.40;;
77625;SDS011;66794;43.764;10.436;2023-09-18T00:33:31;25.50;;;16.35;;
77625;SDS011;66794;43.764;10.436;2023-09-18T00:36:18;24.60;;;15.80;;
77625;SDS011;66794;43.764;10.436;2023-09-18T00:39:03;28.65;;;16.00;;
77625;SDS011;66794;43.764;10.436;2023-09-18T00:41:49;26.30;;;16.02;;
77625;SDS011;66794;43.764;10.436;2023-09-18T00:44:39;22.52;;;16.48;;
77625;SDS011;66794;43.764;10.436;2023-09-18T00:47:28;21.35;;;16.23;;
77625;SDS011;66794;43.764;10.436;2023-09-18T00:50:14;20.50;;;16.67;;
77625;SDS011;66794;43.764;10.436;2023-09-18T00:53:01;23.67;;;16.75;;
77625;SDS011;66794;43.764;10.436;2023-09-18T00:55:47;22.15;;;16.27;;
77625;SDS011;66794;43.764;10.436;2023-09-18T00:58:35;23.45;;;16.20;;
77625;SDS011;66794;43.764;10.436;2023-09-18T01:01:21;23.08;;;15.75;;
77625;SDS011;66794;43.764;10.436;2023-09-18T01:04:08;20.58;;;15.68;;
77625;SDS011;66794;43.764;10.436;2023-09-18T01:06:55;21.98;;;16.60;;
77625;SDS011;66794;43.764;10.436;2023-09-18T01:09:42;23.70;;;15.60;;
77625;SDS011;66794;43.764;10.436;2023-09-18T01:12:32;23.00;;;15.93;;
77625;SDS011;66794;43.764;10.436;2023-09-18T01:15:23;20.95;;;15.40;;
77625;SDS011;66794;43.764;10.436;2023-09-18T01:18:15;22.05;;;15.60;;
77625;SDS011;66794;43.764;10.436;2023-09-18T01:21:02;25.20;;;15.98;;
77625;SDS011;66794;43.764;10.436;2023-09-18T01:23:48;23.77;;;15.25;;
77625;SDS011;66794;43.764;10.436;2023-09-18T01:26:34;20.80;;;15.30;;
77625;SDS011;66794;43.764;10.436;2023-09-18T01:29:20;20.60;;;15.30;;
77625;SDS011;66794;43.764;10.436;2023-09-18T01:32:06;19.67;;;15.07;;
77625;SDS011;66794;43.764;10.436;2023-09-18T01:34:52;18.80;;;15.13;;
77625;SDS011;66794;43.764;10.436;2023-09-18T01:37:40;28.90;;;17.00;;
77625;SDS011;66794;43.764;10.436;2023-09-18T01:40:26;21.92;;;16.40;;
77625;SDS011;66794;43.764;10.436;2023-09-18T01:43:12;20.33;;;16.50;;
77625;SDS011;66794;43.764;10.436;2023-09-18T01:45:59;20.35;;;15.35;;
77625;SDS011;66794;43.764;10.436;2023-09-18T01:48:45;19.10;;;14.93;;
77625;SDS011;66794;43.764;10.436;2023-09-18T01:51:32;17.77;;;15.32;;
77625;SDS011;66794;43.764;10.436;2023-09-18T01:54:18;18.83;;;15.00;;
77625;SDS011;66794;43.764;10.436;2023-09-18T01:57:04;21.65;;;15.00;;
77625;SDS011;66794;43.764;10.436;2023-09-18T01:59:50;21.80;;;15.68;;
77625;SDS011;66794;43.764;10.436;2023-09-18T02:02:36;20.98;;;15.20;;
77625;SDS011;66794;43.764;10.436;2023-09-18T02:05:22;23.75;;;15.20;;
77625;SDS011;66794;43.764;10.436;2023-09-18T02:08:09;22.63;;;14.90;;
77625;SDS011;66794;43.764;10.436;2023-09-18T02:10:54;22.98;;;15.52;;
77625;SDS011;66794;43.764;10.436;2023-09-18T02:13:40;28.90;;;16.98;;
77625;SDS011;66794;43.764;10.436;2023-09-18T02:16:27;27.23;;;16.85;;
77625;SDS011;66794;43.764;10.436;2023-09-18T02:19:13;26.55;;;17.30;;
77625;SDS011;66794;43.764;10.436;2023-09-18T02:21:59;24.30;;;16.65;;
77625;SDS011;66794;43.764;10.436;2023-09-18T02:24:45;20.80;;;16.92;;
77625;SDS011;66794;43.764;10.436;2023-09-18T02:27:30;25.92;;;17.33;;
77625;SDS011;66794;43.764;10.436;2023-09-18T02:30:16;22.35;;;16.67;;
77625;SDS011;66794;43.764;10.436;2023-09-18T02:33:04;23.17;;;15.43;;
77625;SDS011;66794;43.764;10.436;2023-09-18T02:35:50;25.10;;;16.83;;
77625;SDS011;66794;43.764;10.436;2023-09-18T02:38:36;18.10;;;16.20;;
77625;SDS011;66794;43.764;10.436;2023-09-18T02:41:22;23.17;;;17.10;;
77625;SDS011;66794;43.764;10.436;2023-09-18T02:44:07;24.20;;;17.90;;
77625;SDS011;66794;43.764;10.436;2023-09-18T02:46:53;24.63;;;17.40;;
77625;SDS011;66794;43.764;10.436;2023-09-18T02:49:39;26.23;;;17.90;;
77625;SDS011;66794;43.764;10.436;2023-09-18T02:52:25;23.98;;;17.80;;
77625;SDS011;66794;43.764;10.436;2023-09-18T02:55:10;30.38;;;18.40;;
77625;SDS011;66794;43.764;10.436;2023-09-18T02:57:56;29.67;;;17.75;;
77625;SDS011;66794;43.764;10.436;2023-09-18T03:00:42;29.13;;;18.00;;
77625;SDS011;66794;43.764;10.436;2023-09-18T03:03:28;23.98;;;17.00;;
77625;SDS011;66794;43.764;10.436;2023-09-18T03:06:14;25.75;;;18.55;;
77625;SDS011;66794;43.764;10.436;2023-09-18T03:09:00;25.17;;;17.67;;
77625;SDS011;66794;43.764;10.436;2023-09-18T03:11:46;26.73;;;17.40;;
77625;SDS011;66794;43.764;10.436;2023-09-18T03:14:31;23.23;;;17.60;;
77625;SDS011;66794;43.764;10.436;2023-09-18T03:17:17;23.08;;;17.92;;
77625;SDS011;66794;43.764;10.436;2023-09-18T03:20:03;27.40;;;18.52;;
77625;SDS011;66794;43.764;10.436;2023-09-18T03:22:50;29.75;;;18.77;;
77625;SDS011;66794;43.764;10.436;2023-09-18T03:25:37;28.20;;;18.58;;
77625;SDS011;66794;43.764;10.436;2023-09-18T03:28:23;24.75;;;16.73;;
77625;SDS011;66794;43.764;10.436;2023-09-18T03:31:08;25.75;;;17.70;;
77625;SDS011;66794;43.764;10.436;2023-09-18T03:33:54;25.13;;;19.13;;
77625;SDS011;66794;43.764;10.436;2023-09-18T03:36:40;20.60;;;16.48;;
77625;SDS011;66794;43.764;10.436;2023-09-18T03:39:26;23.60;;;17.40;;
77625;SDS011;66794;43.764;10.436;2023-09-18T03:42:11;28.58;;;17.08;;
77625;SDS011;66794;43.764;10.436;2023-09-18T03:44:57;20.80;;;17.08;;
77625;SDS011;66794;43.764;10.436;2023-09-18T03:47:43;25.48;;;17.55;;
77625;SDS011;66794;43.764;10.436;2023-09-18T03:50:29;26.20;;;17.67;;
77625;SDS011;66794;43.764;10.436;2023-09-18T03:53:14;20.30;;;16.38;;
77625;SDS011;66794;43.764;10.436;2023-09-18T03:56:00;24.58;;;17.10;;
77625;SDS011;66794;43.764;10.436;2023-09-18T03:58:46;19.67;;;16.42;;
77625;SDS011;66794;43.764;10.436;2023-09-18T04:01:34;22.27;;;16.63;;
77625;SDS011;66794;43.764;10.436;2023-09-18T04:04:20;24.23;;;17.67;;
77625;SDS011;66794;43.764;10.436;2023-09-18T04:07:06;22.63;;;17.20;;
77625;SDS011;66794;43.764;10.436;2023-09-18T04:09:52;22.80;;;16.55;;
77625;SDS011;66794;43.764;10.436;2023-09-18T04:12:38;27.58;;;17.42;;
77625;SDS011;66794;43.764;10.436;2023-09-18T04:15:23;23.30;;;16.38;;
77625;SDS011;66794;43.764;10.436;2023-09-18T04:18:10;25.40;;;16.30;;
77625;SDS011;66794;43.764;10.436;2023-09-18T04:20:56;22.88;;;16.08;;
77625;SDS011;66794;43.764;10.436;2023-09-18T04:23:42;24.27;;;15.85;;
77625;SDS011;66794;43.764;10.436;2023-09-18T04:26:28;26.77;;;15.48;;
77625;SDS011;66794;43.764;10.436;2023-09-18T04:29:16;24.67;;;15.73;;
77625;SDS011;66794;43.764;10.436;2023-09-18T04:32:03;24.60;;;15.15;;
77625;SDS011;66794;43.764;10.436;2023-09-18T04:34:50;28.02;;;16.42;;
77625;SDS011;66794;43.764;10.436;2023-09-18T04:37:36;27.13;;;15.07;;
77625;SDS011;66794;43.764;10.436;2023-09-18T04:40:23;22.20;;;15.07;;
77625;SDS011;66794;43.764;10.436;2023-09-18T04:43:09;24.50;;;14.48;;
77625;SDS011;66794;43.764;10.436;2023-09-18T04:45:55;25.10;;;15.02;;
77625;SDS011;66794;43.764;10.436;2023-09-18T04:48:41;29.60;;;14.50;;
77625;SDS011;66794;43.764;10.436;2023-09-18T04:51:27;20.38;;;14.05;;
77625;SDS011;66794;43.764;10.436;2023-09-18T04:54:12;27.40;;;14.75;;
77625;SDS011;66794;43.764;10.436;2023-09-18T04:56:58;25.02;;;14.98;;
77625;SDS011;66794;43.764;10.436;2023-09-18T04:59:44;19.90;;;14.02;;
77625;SDS011;66794;43.764;10.436;2023-09-18T05:02:30;23.85;;;14.52;;
77625;SDS011;66794;43.764;10.436;2023-09-18T05:05:15;20.17;;;13.85;;
77625;SDS011;66794;43.764;10.436;2023-09-18T05:08:01;19.92;;;13.75;;
77625;SDS011;66794;43.764;10.436;2023-09-18T05:10:50;22.00;;;14.90;;
77625;SDS011;66794;43.764;10.436;2023-09-18T05:13:35;21.55;;;14.23;;
77625;SDS011;66794;43.764;10.436;2023-09-18T05:16:21;19.60;;;14.38;;
77625;SDS011;66794;43.764;10.436;2023-09-18T05:19:07;23.27;;;14.25;;
77625;SDS011;66794;43.764;10.436;2023-09-18T05:21:53;26.92;;;13.98;;
77625;SDS011;66794;43.764;10.436;2023-09-18T05:24:39;21.33;;;14.48;;
77625;SDS011;66794;43.764;10.436;2023-09-18T05:27:25;18.05;;;13.98;;
77625;SDS011;66794;43.764;10.436;2023-09-18T05:32:58;26.27;;;14.05;;
77625;SDS011;66794;43.764;10.436;2023-09-18T05:35:51;23.20;;;14.23;;
77625;SDS011;66794;43.764;10.436;2023-09-18T05:38:37;23.27;;;13.05;;
77625;SDS011;66794;43.764;10.436;2023-09-18T05:41:23;21.80;;;13.43;;
77625;SDS011;66794;43.764;10.436;2023-09-18T05:44:11;20.05;;;13.65;;
77625;SDS011;66794;43.764;10.436;2023-09-18T05:46:57;21.10;;;13.05;;
77625;SDS011;66794;43.764;10.436;2023-09-18T05:49:43;19.83;;;12.55;;
77625;SDS011;66794;43.764;10.436;2023-09-18T05:52:29;22.15;;;12.30;;
77625;SDS011;66794;43.764;10.436;2023-09-18T05:55:14;18.88;;;11.70;;
77625;SDS011;66794;43.764;10.436;2023-09-18T05:58:01;17.33;;;11.50;;
77625;SDS011;66794;43.764;10.436;2023-09-18T06:00:49;16.70;;;11.90;;
77625;SDS011;66794;43.764;10.436;2023-09-18T06:03:35;22.17;;;12.65;;
77625;SDS011;66794;43.764;10.436;2023-09-18T06:06:21;22.65;;;13.40;;
77625;SDS011;66794;43.764;10.436;2023-09-18T06:09:07;19.40;;;12.48;;
77625;SDS011;66794;43.764;10.436;2023-09-18T06:11:52;20.33;;;12.85;;
77625;SDS011;66794;43.764;10.436;2023-09-18T06:14:38;19.38;;;12.60;;
77625;SDS011;66794;43.764;10.436;2023-09-18T06:17:24;18.77;;;12.82;;
77625;SDS011;66794;43.764;10.436;2023-09-18T06:20:10;22.27;;;11.45;;
77625;SDS011;66794;43.764;10.436;2023-09-18T06:22:58;25.35;;;12.05;;
77625;SDS011;66794;43.764;10.436;2023-09-18T06:25:43;14.43;;;11.43;;
77625;SDS011;66794;43.764;10.436;2023-09-18T06:28:29;15.93;;;11.50;;
77625;SDS011;66794;43.764;10.436;2023-09-18T06:31:15;16.58;;;11.45;;
77625;SDS011;66794;43.764;10.436;2023-09-18T06:34:01;150.70;;;20.08;;
77625;SDS011;66794;43.764;10.436;2023-09-18T06:36:47;223.80;;;21.65;;
77625;SDS011;66794;43.764;10.436;2023-09-18T06:39:33;20.92;;;9.05;;
77625;SDS011;66794;43.764;10.436;2023-09-18T06:42:19;14.73;;;8.18;;
77625;SDS011;66794;43.764;10.436;2023-09-18T06:45:05;14.80;;;7.63;;
77625;SDS011;66794;43.764;10.436;2023-09-18T06:47:52;11.70;;;7.60;;
77625;SDS011;66794;43.764;10.436;2023-09-18T06:50:38;13.00;;;7.70;;
77625;SDS011;66794;43.764;10.436;2023-09-18T06:53:25;16.23;;;8.07;;
77625;SDS011;66794;43.764;10.436;2023-09-18T06:56:12;14.52;;;7.45;;
77625;SDS011;66794;43.764;10.436;2023-09-18T06:58:58;17.30;;;7.75;;
77625;SDS011;66794;43.764;10.436;2023-09-18T07:01:43;16.23;;;8.38;;
77625;SDS011;66794;43.764;10.436;2023-09-18T07:04:09;10.50;;;7.90;;
77625;SDS011;66794;43.764;10.436;2023-09-18T07:06:35;15.90;;;8.73;;
77625;SDS011;66794;43.764;10.436;2023-09-18T07:09:00;12.43;;;8.07;;
77625;SDS011;66794;43.764;10.436;2023-09-18T07:11:27;14.73;;;8.55;;
77625;SDS011;66794;43.764;10.436;2023-09-18T07:13:52;14.48;;;8.23;;
77625;SDS011;66794;43.764;10.436;2023-09-18T07:16:17;15.93;;;8.55;;
77625;SDS011;66794;43.764;10.436;2023-09-18T07:18:43;17.40;;;9.57;;
77625;SDS011;66794;43.764;10.436;2023-09-18T07:21:08;17.70;;;8.95;;
77625;SDS011;66794;43.764;10.436;2023-09-18T07:23:34;19.90;;;10.35;;
77625;SDS011;66794;43.764;10.436;2023-09-18T07:26:02;29.90;;;16.45;;
77625;SDS011;66794;43.764;10.436;2023-09-18T07:28:28;29.10;;;20.63;;
77625;SDS011;66794;43.764;10.436;2023-09-18T07:30:53;29.13;;;17.77;;
77625;SDS011;66794;43.764;10.436;2023-09-18T07:33:18;26.75;;;16.40;;
77625;SDS011;66794;43.764;10.436;2023-09-18T07:35:48;23.33;;;14.25;;
77625;SDS011;66794;43.764;10.436;2023-09-18T07:38:16;20.08;;;12.82;;
77625;SDS011;66794;43.764;10.436;2023-09-18T07:40:44;17.98;;;13.40;;
77625;SDS011;66794;43.764;10.436;2023-09-18T07:43:10;19.92;;;13.32;;
77625;SDS011;66794;43.764;10.436;2023-09-18T07:45:38;16.20;;;12.43;;
77625;SDS011;66794;43.764;10.436;2023-09-18T07:48:05;19.75;;;12.68;;
77625;SDS011;66794;43.764;10.436;2023-09-18T07:50:31;24.17;;;14.45;;
77625;SDS011;66794;43.764;10.436;2023-09-18T07:52:58;25.83;;;15.68;;
77625;SDS011;66794;43.764;10.436;2023-09-18T07:55:24;25.98;;;15.82;;
77625;SDS011;66794;43.764;10.436;2023-09-18T07:57:49;25.58;;;14.90;;
77625;SDS011;66794;43.764;10.436;2023-09-18T08:00:16;24.67;;;12.93;;
77625;SDS011;66794;43.764;10.436;2023-09-18T08:02:42;21.88;;;13.77;;
77625;SDS011;66794;43.764;10.436;2023-09-18T08:05:08;26.65;;;13.57;;
77625;SDS011;66794;43.764;10.436;2023-09-18T08:07:34;23.25;;;12.40;;
77625;SDS011;66794;43.764;10.436;2023-09-18T08:10:01;23.67;;;13.55;;
77625;SDS011;66794;43.764;10.436;2023-09-18T08:12:31;24.00;;;13.02;;
77625;SDS011;66794;43.764;10.436;2023-09-18T08:14:57;22.08;;;12.02;;
77625;SDS011;66794;43.764;10.436;2023-09-18T08:17:24;19.35;;;12.30;;
77625;SDS011;66794;43.764;10.436;2023-09-18T08:19:50;24.80;;;12.15;;
77625;SDS011;66794;43.764;10.436;2023-09-18T08:22:17;15.35;;;7.55;;
77625;SDS011;66794;43.764;10.436;2023-09-18T08:24:44;20.25;;;8.60;;
77625;SDS011;66794;43.764;10.436;2023-09-18T08:27:11;13.32;;;7.65;;
77625;SDS011;66794;43.764;10.436;2023-09-18T08:29:38;18.83;;;7.35;;
77625;SDS011;66794;43.764;10.436;2023-09-18T08:32:04;15.23;;;7.15;;
77625;SDS011;66794;43.764;10.436;2023-09-18T08:34:29;16.98;;;7.82;;
77625;SDS011;66794;43.764;10.436;2023-09-18T08:36:54;25.30;;;7.85;;
77625;SDS011;66794;43.764;10.436;2023-09-18T08:39:20;16.25;;;7.28;;
77625;SDS011;66794;43.764;10.436;2023-09-18T08:41:45;13.15;;;7.28;;
77625;SDS011;66794;43.764;10.436;2023-09-18T08:44:20;12.80;;;7.50;;
77625;SDS011;66794;43.764;10.436;2023-09-18T08:46:50;10.15;;;6.95;;
77625;SDS011;66794;43.764;10.436;2023-09-18T08:49:16;14.85;;;8.07;;
77625;SDS011;66794;43.764;10.436;2023-09-18T08:51:42;13.38;;;8.18;;
77625;SDS011;66794;43.764;10.436;2023-09-18T08:54:09;15.48;;;7.65;;
77625;SDS011;66794;43.764;10.436;2023-09-18T08:56:35;13.52;;;7.78;;
77625;SDS011;66794;43.764;10.436;2023-09-18T08:59:00;14.35;;;8.10;;
77625;SDS011;66794;43.764;10.436;2023-09-18T09:01:26;14.52;;;7.68;;
77625;SDS011;66794;43.764;10.436;2023-09-18T09:03:51;12.35;;;7.95;;
77625;SDS011;66794;43.764;10.436;2023-09-18T09:06:17;17.55;;;8.77;;
77625;SDS011;66794;43.764;10.436;2023-09-18T09:08:42;12.32;;;8.10;;
77625;SDS011;66794;43.764;10.436;2023-09-18T09:11:08;14.82;;;7.50;;
77625;SDS011;66794;43.764;10.436;2023-09-18T09:13:33;14.02;;;8.15;;
77625;SDS011;66794;43.764;10.436;2023-09-18T09:15:59;14.65;;;7.82;;
77625;SDS011;66794;43.764;10.436;2023-09-18T09:18:29;12.82;;;8.20;;
77625;SDS011;66794;43.764;10.436;2023-09-18T09:23:28;16.88;;;8.15;;
77625;SDS011;66794;43.764;10.436;2023-09-18T09:26:00;14.27;;;7.30;;
77625;SDS011;66794;43.764;10.436;2023-09-18T09:28:37;16.95;;;7.95;;
77625;SDS011;66794;43.764;10.436;2023-09-18T09:31:03;15.15;;;8.38;;
77625;SDS011;66794;43.764;10.436;2023-09-18T09:33:29;15.20;;;7.63;;
77625;SDS011;66794;43.764;10.436;2023-09-18T09:35:55;11.57;;;7.35;;
77625;SDS011;66794;43.764;10.436;2023-09-18T09:38:22;26.40;;;8.68;;
77625;SDS011;66794;43.764;10.436;2023-09-18T09:40:53;12.35;;;8.57;;
77625;SDS011;66794;43.764;10.436;2023-09-18T09:43:19;13.68;;;7.88;;
77625;SDS011;66794;43.764;10.436;2023-09-18T09:45:45;15.45;;;8.40;;
77625;SDS011;66794;43.764;10.436;2023-09-18T09:48:11;11.63;;;8.20;;
77625;SDS011;66794;43.764;10.436;2023-09-18T09:50:44;18.95;;;7.78;;
77625;SDS011;66794;43.764;10.436;2023-09-18T09:53:13;16.33;;;7.97;;
77625;SDS011;66794;43.764;10.436;2023-09-18T09:55:40;15.55;;;8.32;;
77625;SDS011;66794;43.764;10.436;2023-09-18T09:58:06;18.95;;;8.10;;
77625;SDS011;66794;43.764;10.436;2023-09-18T10:00:35;14.50;;;8.20;;
77625;SDS011;66794;43.764;10.436;2023-09-18T10:03:11;13.68;;;8.30;;
77625;SDS011;66794;43.764;10.436;2023-09-18T10:05:39;19.73;;;8.35;;
77625;SDS011;66794;43.764;10.436;2023-09-18T10:08:19;19.85;;;8.30;;
77625;SDS011;66794;43.764;10.436;2023-09-18T10:10:51;14.48;;;8.23;;
77625;SDS011;66794;43.764;10.436;2023-09-18T10:13:19;17.40;;;8.77;;
77625;SDS011;66794;43.764;10.436;2023-09-18T10:15:52;15.63;;;9.30;;
77625;SDS011;66794;43.764;10.436;2023-09-18T10:18:28;16.95;;;9.38;;
77625;SDS011;66794;43.764;10.436;2023-09-18T10:21:17;15.75;;;9.23;;
77625;SDS011;66794;43.764;10.436;2023-09-18T10:26:18;18.80;;;10.55;;
77625;SDS011;66794;43.764;10.436;2023-09-18T10:28:55;15.63;;;9.98;;
77625;SDS011;66794;43.764;10.436;2023-09-18T10:31:28;16.75;;;9.52;;
77625;SDS011;66794;43.764;10.436;2023-09-18T10:33:55;25.15;;;10.50;;
77625;SDS011;66794;43.764;10.436;2023-09-18T10:36:22;19.35;;;10.05;;
77625;SDS011;66794;43.764;10.436;2023-09-18T10:38:50;20.80;;;10.48;;
77625;SDS011;66794;43.764;10.436;2023-09-18T10:41:19;17.20;;;10.05;;
77625;SDS011;66794;43.764;10.436;2023-09-18T10:43:46;16.45;;;10.43;;
77625;SDS011;66794;43.764;10.436;2023-09-18T10:46:15;20.15;;;10.95;;
77625;SDS011;66794;43.764;10.436;2023-09-18T10:48:41;20.38;;;10.18;;
77625;SDS011;66794;43.764;10.436;2023-09-18T10:51:08;24.00;;;10.55;;
77625;SDS011;66794;43.764;10.436;2023-09-18T10:53:35;19.88;;;11.50;;
77625;SDS011;66794;43.764;10.436;2023-09-18T10:56:01;16.38;;;10.18;;
77625;SDS011;66794;43.764;10.436;2023-09-18T10:58:29;22.15;;;11.27;;
77625;SDS011;66794;43.764;10.436;2023-09-18T11:00:56;16.73;;;10.27;;
77625;SDS011;66794;43.764;10.436;2023-09-18T11:03:24;20.98;;;10.25;;
77625;SDS011;66794;43.764;10.436;2023-09-18T11:06:01;18.55;;;10.23;;
77625;SDS011;66794;43.764;10.436;2023-09-18T11:08:29;18.58;;;10.48;;
77625;SDS011;66794;43.764;10.436;2023-09-18T11:13:42;18.27;;;10.13;;
77625;SDS011;66794;43.764;10.436;2023-09-18T11:16:14;18.05;;;10.35;;
77625;SDS011;66794;43.764;10.436;2023-09-18T11:21:24;15.63;;;10.00;;
77625;SDS011;66794;43.764;10.436;2023-09-18T11:24:00;22.23;;;10.10;;
77625;SDS011;66794;43.764;10.436;2023-09-18T11:26:34;21.45;;;10.15;;
77625;SDS011;66794;43.764;10.436;2023-09-18T11:29:03;18.25;;;10.00;;
77625;SDS011;66794;43.764;10.436;2023-09-18T11:31:49;21.20;;;11.10;;
77625;SDS011;66794;43.764;10.436;2023-09-18T11:36:56;22.63;;;10.43;;
77625;SDS011;66794;43.764;10.436;2023-09-18T11:39:36;23.33;;;10.52;;
77625;SDS011;66794;43.764;10.436;2023-09-18T11:42:16;18.50;;;10.68;;
77625;SDS011;66794;43.764;10.436;2023-09-18T11:44:43;25.45;;;10.88;;
77625;SDS011;66794;43.764;10.436;2023-09-18T11:47:12;20.73;;;10.43;;
77625;SDS011;66794;43.764;10.436;2023-09-18T11:52:26;21.40;;;10.95;;
77625;SDS011;66794;43.764;10.436;2023-09-18T11:54:55;22.17;;;10.45;;
77625;SDS011;66794;43.764;10.436;2023-09-18T11:57:22;25.60;;;11.55;;
77625;SDS011;66794;43.764;10.436;2023-09-18T11:59:48;20.60;;;11.13;;
77625;SDS011;66794;43.764;10.436;2023-09-18T12:02:24;22.30;;;10.60;;
77625;SDS011;66794;43.764;10.436;2023-09-18T12:04:53;28.65;;;10.50;;
77625;SDS011;66794;43.764;10.436;2023-09-18T12:07:19;18.20;;;10.38;;
77625;SDS011;66794;43.764;10.436;2023-09-18T12:09:45;22.65;;;10.93;;
77625;SDS011;66794;43.764;10.436;2023-09-18T12:12:10;20.83;;;10.23;;
77625;SDS011;66794;43.764;10.436;2023-09-18T12:14:39;21.23;;;9.95;;
77625;SDS011;66794;43.764;10.436;2023-09-18T12:17:07;20.33;;;9.95;;
77625;SDS011;66794;43.764;10.436;2023-09-18T12:19:33;19.63;;;10.23;;
77625;SDS011;66794;43.764;10.436;2023-09-18T12:22:00;18.42;;;10.13;;
77625;SDS011;66794;43.764;10.436;2023-09-18T12:24:26;22.65;;;10.18;;
77625;SDS011;66794;43.764;10.436;2023-09-18T12:26:52;25.67;;;10.65;;
77625;SDS011;66794;43.764;10.436;2023-09-18T12:29:19;19.20;;;10.20;;
77625;SDS011;66794;43.764;10.436;2023-09-18T12:31:45;18.17;;;10.35;;
77625;SDS011;66794;43.764;10.436;2023-09-18T12:34:17;29.02;;;10.77;;
77625;SDS011;66794;43.764;10.436;2023-09-18T12:36:46;22.73;;;10.80;;
77625;SDS011;66794;43.764;10.436;2023-09-18T12:39:12;19.35;;;10.02;;
77625;SDS011;66794;43.764;10.436;2023-09-18T12:41:41;21.02;;;10.70;;
77625;SDS011;66794;43.764;10.436;2023-09-18T12:44:08;21.08;;;10.27;;
77625;SDS011;66794;43.764;10.436;2023-09-18T12:46:35;21.35;;;10.50;;
77625;SDS011;66794;43.764;10.436;2023-09-18T12:51:56;22.95;;;11.23;;
77625;SDS011;66794;43.764;10.436;2023-09-18T12:54:35;25.55;;;11.07;;
77625;SDS011;66794;43.764;10.436;2023-09-18T12:57:04;26.38;;;11.18;;
77625;SDS011;66794;43.764;10.436;2023-09-18T12:59:34;20.35;;;11.23;;
77625;SDS011;66794;43.764;10.436;2023-09-18T13:02:04;29.02;;;10.45;;
77625;SDS011;66794;43.764;10.436;2023-09-18T13:04:31;26.77;;;10.82;;
77625;SDS011;66794;43.764;10.436;2023-09-18T13:07:09;26.38;;;9.85;;
77625;SDS011;66794;43.764;10.436;2023-09-18T13:09:36;27.20;;;9.07;;
77625;SDS011;66794;43.764;10.436;2023-09-18T13:12:02;33.40;;;10.85;;
77625;SDS011;66794;43.764;10.436;2023-09-18T13:14:28;21.80;;;9.88;;
77625;SDS011;66794;43.764;10.436;2023-09-18T13:17:00;33.10;;;10.23;;
77625;SDS011;66794;43.764;10.436;2023-09-18T13:19:25;38.25;;;10.55;;
77625;SDS011;66794;43.764;10.436;2023-09-18T13:21:51;26.02;;;10.35;;
77625;SDS011;66794;43.764;10.436;2023-09-18T13:24:29;26.30;;;10.82;;
77625;SDS011;66794;43.764;10.436;2023-09-18T13:26:56;25.35;;;10.93;;
77625;SDS011;66794;43.764;10.436;2023-09-18T13:29:23;29.38;;;11.75;;
77625;SDS011;66794;43.764;10.436;2023-09-18T13:31:49;24.67;;;11.13;;
77625;SDS011;66794;43.764;10.436;2023-09-18T13:34:16;30.77;;;10.73;;
77625;SDS011;66794;43.764;10.436;2023-09-18T13:36:47;23.27;;;11.90;;
77625;SDS011;66794;43.764;10.436;2023-09-18T13:39:13;26.20;;;12.68;;
77625;SDS011;66794;43.764;10.436;2023-09-18T13:41:41;20.85;;;13.85;;
77625;SDS011;66794;43.764;10.436;2023-09-18T13:44:07;21.25;;;14.10;;
77625;SDS011;66794;43.764;10.436;2023-09-18T13:46:35;23.52;;;13.60;;
77625;SDS011;66794;43.764;10.436;2023-09-18T13:49:04;21.70;;;14.52;;
77625;SDS011;66794;43.764;10.436;2023-09-18T13:51:33;27.35;;;16.17;;
77625;SDS011;66794;43.764;10.436;2023-09-18T13:53:58;29.55;;;15.85;;
77625;SDS011;66794;43.764;10.436;2023-09-18T13:56:24;26.98;;;14.93;;
77625;SDS011;66794;43.764;10.436;2023-09-18T13:58:56;31.38;;;16.20;;
77625;SDS011;66794;43.764;10.436;2023-09-18T14:01:22;29.23;;;15.93;;
77625;SDS011;66794;43.764;10.436;2023-09-18T14:03:50;28.20;;;14.85;;
77625;SDS011;66794;43.764;10.436;2023-09-18T14:06:15;28.52;;;13.98;;
77625;SDS011;66794;43.764;10.436;2023-09-18T14:08:41;25.88;;;13.75;;
77625;SDS011;66794;43.764;10.436;2023-09-18T14:11:06;24.45;;;13.77;;
77625;SDS011;66794;43.764;10.436;2023-09-18T14:13:32;25.42;;;14.23;;
77625;SDS011;66794;43.764;10.436;2023-09-18T14:15:57;30.75;;;14.13;;
77625;SDS011;66794;43.764;10.436;2023-09-18T14:18:23;22.95;;;14.55;;
77625;SDS011;66794;43.764;10.436;2023-09-18T14:20:49;23.52;;;13.80;;
77625;SDS011;66794;43.764;10.436;2023-09-18T14:23:14;32.58;;;13.52;;
77625;SDS011;66794;43.764;10.436;2023-09-18T14:25:39;26.73;;;13.18;;
77625;SDS011;66794;43.764;10.436;2023-09-18T14:28:06;28.05;;;13.82;;
77625;SDS011;66794;43.764;10.436;2023-09-18T14:30:32;25.92;;;13.75;;
77625;SDS011;66794;43.764;10.436;2023-09-18T14:32:58;24.50;;;13.23;;
77625;SDS011;66794;43.764;10.436;2023-09-18T14:35:26;24.20;;;13.80;;
77625;SDS011;66794;43.764;10.436;2023-09-18T14:37:51;24.55;;;12.45;;
77625;SDS011;66794;43.764;10.436;2023-09-18T14:40:18;27.88;;;14.50;;
77625;SDS011;66794;43.764;10.436;2023-09-18T14:42:45;23.95;;;13.75;;
77625;SDS011;66794;43.764;10.436;2023-09-18T14:45:11;24.58;;;13.75;;
77625;SDS011;66794;43.764;10.436;2023-09-18T14:47:37;26.85;;;14.68;;
77625;SDS011;66794;43.764;10.436;2023-09-18T14:50:03;27.90;;;14.07;;
77625;SDS011;66794;43.764;10.436;2023-09-18T14:52:30;26.85;;;14.63;;
77625;SDS011;66794;43.764;10.436;2023-09-18T14:54:55;23.92;;;14.02;;
77625;SDS011;66794;43.764;10.436;2023-09-18T14:57:21;27.42;;;14.23;;
77625;SDS011;66794;43.764;10.436;2023-09-18T14:59:46;26.60;;;14.57;;
77625;SDS011;66794;43.764;10.436;2023-09-18T15:02:15;25.08;;;13.48;;
77625;SDS011;66794;43.764;10.436;2023-09-18T15:04:42;25.98;;;14.23;;
77625;SDS011;66794;43.764;10.436;2023-09-18T15:07:08;26.17;;;14.32;;
77625;SDS011;66794;43.764;10.436;2023-09-18T15:09:35;31.58;;;15.35;;
77625;SDS011;66794;43.764;10.436;2023-09-18T15:12:01;22.70;;;13.48;;
77625;SDS011;66794;43.764;10.436;2023-09-18T15:14:26;23.40;;;14.45;;
77625;SDS011;66794;43.764;10.436;2023-09-18T15:16:52;31.17;;;14.00;;
77625;SDS011;66794;43.764;10.436;2023-09-18T15:19:17;25.50;;;14.27;;
77625;SDS011;66794;43.764;10.436;2023-09-18T15:21:42;30.60;;;14.48;;